Tiempo atmosférico en la estación meteorológica de Labastida, Araba/Álava (610 m.)



Fecha
DESCASC
Temp. máxima en grados centígrados (hora)
DESCASC
Temp. mínima en grados centígrados (hora)
DESCASC
Temp. media en grados centígrados
DESCASC
Racha de viento máxima en m/sg (hora)
DESCASC
Velocidad máxima media en intervalos de 10 minutos(hora)
DESCASC
Precipitaciones diarias en mm
DESCASC
Precipitaciones de 00:00 a 06:00 en mm
DESCASC
Precipitaciones de 06:00 a 12:00 en mm
DESCASC
Precipitaciones de 12:00 a 18:00 en mm
DESCASC
Precipitaciones de 18:00 a 24:00 en mm
DESCASC
19-01-2020 5.9 (14:40) 1.9 (23:59) 3.9 15.83 (23:30) 6.11 (14:00) 3.8 3 0.8 0 0
18-01-2020 8.3 (16:10) 1.4 (07:10) 4.9 11.94 (19:50) 5.83 (19:40) 24.6 0 0 2.6 22
17-01-2020 11.1 (12:30) 3 (23:30) 7.1 7.78 (11:40) 2.78 (18:30) 0.2 0 0.2 0 0
16-01-2020 12.1 (15:50) 1 (00:00) 6.6 6.94 (00:50) 3.33 (15:10) 0 0 0 0 0
15-01-2020 7.3 (16:00) -1.4 (-00:0) 3 7.5 (17:30) 2.78 (11:20) 0 0 0 0 0
14-01-2020 9.9 (15:10) -1.5 (-00:0) 4.2 10 (08:10) 3.61 (05:00) 0 0 0 0 0
13-01-2020 8.3 (16:20) -1 (-00:0) 3.7 4.17 (21:50) 2.22 (19:30) 0 0 0 0 0
12-01-2020 12.2 (16:00) -2.7 (-00:0) 4.7 9.44 (17:00) 3.61 (17:10) 0 0 0 0 0
11-01-2020 11 (16:50) 0 (00:00) 5.5 5.28 (14:50) 2.78 (15:00) 0 0 0 0 0
10-01-2020 8 (14:00) 2.8 (00:00) 5.4 13.89 (17:00) 6.67 (17:20) 3 0.8 0 2.2 0
09-01-2020 3.9 (15:50) 1.5 (00:00) 2.7 4.44 (14:50) 2.78 (14:30) 1 0 0 0 1
08-01-2020 15.3 (15:50) 2 (00:00) 8.7 5.28 (16:00) 3.33 (16:00) 0 0 0 0 0
07-01-2020 15.5 (16:30) -1 (-00:0) 7.3 3.61 (05:30) 1.94 (05:30) 0 0 0 0 0
06-01-2020 9.6 (16:20) -1.7 (-00:0) 4 3.89 (13:50) 2.22 (13:50) 0 0 0 0 0
05-01-2020 14.8 (16:10) 0.9 (00:00) 7.9 7.5 (02:50) 3.61 (02:50) 0 0 0 0 0
04-01-2020 8.4 (15:10) 2.9 (00:00) 5.6 6.11 (02:50) 2.5 (09:40) 0.8 0.4 0.2 0.2 0
03-01-2020 7.7 (16:50) -2.4 (-00:0) 2.6 5 (21:10) 3.06 (18:30) 0.4 0 0 0 0.4
02-01-2020 -0.1 (14:50) -3.4 (-00:0) -1.8 3.33 (14:20) 2.22 (15:10) 0 0 0 0 0
01-01-2020 6.4 (14:30) -4.4 (-00:0) 1 2.78 (14:10) 1.67 (15:00) 0 0 0 0 0
31-12-2019 -- (--) -- (--) -- -- (--) -- (--) -- 0 -- -- --
30-12-2019 -- (--) -- (--) -- -- (--) -- (--) -- 0 0 0 --
29-12-2019 7.3 (16:30) -0.8 (-00:0) 3.3 2.5 (23:00) 1.67 (00:10) 0 0 0 0 0
28-12-2019 14.8 (15:50) -1.6 (-00:0) 6.6 2.78 (18:50) 1.94 (18:50) 0 0 0 0 0
27-12-2019 10.5 (15:10) -1.4 (-00:0) 4.6 3.06 (20:10) 1.67 (16:00) 0 0 0 0 0
26-12-2019 15 (01:30) 3.2 (00:00) 9.1 8.61 (03:00) 4.72 (12:00) 0 0 0 0 0
25-12-2019 16.1 (16:30) 4.7 (00:00) 10.4 4.72 (19:20) 2.22 (21:10) 0 0 0 0 0
24-12-2019 15 (15:10) 6.9 (00:00) 11 8.89 (02:00) 3.61 (03:50) 0 0 0 0 0
23-12-2019 12.1 (15:50) 5.1 (00:00) 8.6 10.28 (19:30) 4.17 (22:40) 0 0 0 0 0

Gráficas

Temp. máximas Temp. mínimas Temp. medias Precipitaciones Rachas de viento máximas Velocidades máximas media en intervalos de 10 minutos

Datos horarios

Fecha y hora oficial Temperatura (ºC) Velocidad del viento (km/h) Dirección del viento Racha (km/h) Dirección de racha Precipitación (mm) Presión (hPa) Tendencia (hPa) Humedad (%)
2020-01-21 23:00:00 2.3 6 Noroeste 23 Este 0 -- -- 89
2020-01-21 22:00:00 2.1 6 Sudoeste 19 Nordeste 0 -- -- 89
2020-01-21 21:00:00 1.9 4 Noroeste 27 Este 0 -- -- 89
2020-01-21 20:00:00 2.1 6 Sur 34 Nordeste 0 -- -- 87
2020-01-21 19:00:00 1.9 7 Este 32 Norte 0 -- -- 91
2020-01-21 18:00:00 2.1 10 Oeste 23 Sudoeste 0.2 -- -- 90
2020-01-21 17:00:00 2 8 Sudeste 24 Nordeste 2 -- -- 91
2020-01-21 16:00:00 1.5 12 Sudeste 35 Nordeste 2.8 -- -- 91
2020-01-21 15:00:00 1.6 13 Nordeste 40 Nordeste 1.6 -- -- 88
2020-01-21 14:00:00 1.8 11 Este 37 Nordeste 0.4 -- -- 89
2020-01-21 13:00:00 1.5 8 Sur 38 Nordeste 4.6 -- -- 89
2020-01-21 12:00:00 2.3 10 Sur 21 Sudoeste 0 -- -- 84
2020-01-21 11:00:00 1.9 11 Sudoeste 30 Norte 0 -- -- 88
2020-01-21 10:00:00 1.9 18 Norte 54 Nordeste 0.4 -- -- 83
2020-01-21 09:00:00 2.6 16 Norte 50 Nordeste 0 -- -- 77
2020-01-21 08:00:00 2.7 22 Norte 50 Norte 0 -- -- 75
2020-01-21 07:00:00 2.3 13 Sudeste 62 Norte 0 -- -- 73
2020-01-21 06:00:00 2.1 12 Nordeste 39 Norte 0 -- -- 72
2020-01-21 05:00:00 2.1 15 Nordeste 41 Norte 0 -- -- 69
2020-01-21 04:00:00 1.2 6 Sur 22 Norte 0 -- -- 71
2020-01-21 03:00:00 0.5 7 Sur 31 Este 0 -- -- 73
2020-01-21 02:00:00 1.4 14 Nordeste 42 Este 0 -- -- 67
2020-01-21 01:00:00 1.3 15 Nordeste 40 Nordeste 0 -- -- 68
2020-01-21 00:00:00 1.5 20 Nordeste 42 Norte 0 -- -- 70
2020-01-20 23:00:00 1.5 19 Norte 44 Norte 0 -- -- 75
2020-01-20 22:00:00 1.4 18 Nordeste 36 Norte 0 -- -- 74
2020-01-20 21:00:00 1.1 19 Norte 42 Nordeste 0 -- -- 74
2020-01-20 20:00:00 0.8 16 Nordeste 34 Norte 0 -- -- 72
2020-01-20 19:00:00 0.7 19 Nordeste 42 Norte 0 -- -- 72
2020-01-20 18:00:00 0.8 20 Norte 41 Nordeste 0 -- -- 69
2020-01-20 17:00:00 1.4 20 Norte 40 Norte 0 -- -- 65
2020-01-20 16:00:00 1.5 19 Nordeste 45 Nordeste 0 -- -- 63
2020-01-20 15:00:00 1.6 19 Norte 43 Norte 0 -- -- 63
2020-01-20 14:00:00 1.8 11 Norte 45 Este 0 -- -- 64
2020-01-20 13:00:00 1.2 7 Oeste 29 Noroeste 0 -- -- 65
2020-01-20 12:00:00 0.7 9 Sur 47 Norte 0 -- -- 67
2020-01-20 11:00:00 0.6 23 Nordeste 52 Norte 0 -- -- 65
2020-01-20 10:00:00 0.5 20 Nordeste 54 Nordeste 0 -- -- 65
2020-01-20 09:00:00 -0.1 23 Nordeste 53 Nordeste 0 -- -- 68
2020-01-20 08:00:00 0 16 Norte 60 Nordeste 0 -- -- 69
2020-01-20 07:00:00 0.3 18 Norte 43 Norte 0 -- -- 69
2020-01-20 06:00:00 0.5 12 Noroeste 43 Noroeste 0 -- -- 70
2020-01-20 05:00:00 0.6 10 Noroeste 48 Noroeste 0 -- -- 69
2020-01-20 04:00:00 1 11 Sudoeste 40 Norte 0 -- -- 67
2020-01-20 03:00:00 1.1 10 Norte 30 Sudoeste 0 -- -- 67
2020-01-20 02:00:00 1.6 12 Oeste 46 Oeste 0 -- -- 65
2020-01-20 01:00:00 1.7 10 Oeste 35 Noroeste 0 -- -- 65
2020-01-20 00:00:00 1.9 7 Oeste 57 Nordeste 0 -- -- 64
2020-01-19 23:00:00 2.2 9 Sudeste 47 Este 0 -- -- 62
2020-01-19 22:00:00 2.8 14 Sudoeste 47 Nordeste 0 -- -- 61
2020-01-19 21:00:00 3.1 10 Noroeste 36 Sudoeste 0 -- -- 58
2020-01-19 20:00:00 3.3 15 Sudoeste 46 Noroeste 0 -- -- 63
2020-01-19 19:00:00 3.2 14 Noroeste 39 Nordeste 0 -- -- 65
2020-01-19 18:00:00 3.5 15 Noroeste 39 Noroeste 0 -- -- 65
2020-01-19 17:00:00 3.9 14 Noroeste 55 Oeste 0 -- -- 61
2020-01-19 16:00:00 5.3 15 Noroeste 41 Noroeste 0 -- -- 58
2020-01-19 15:00:00 5.9 11 Noroeste 49 Norte 0 -- -- 63
2020-01-19 14:00:00 5.5 22 Norte 46 Noroeste 0 -- -- 63
2020-01-19 13:00:00 4.7 10 Norte 28 Noroeste 0 -- -- 71
2020-01-19 12:00:00 4 12 Norte 28 Oeste 0 -- -- 73
2020-01-19 11:00:00 4.1 7 Noroeste 41 Noroeste 0 -- -- 76
2020-01-19 10:00:00 4.5 14 Oeste 38 Oeste 0 -- -- 76
2020-01-19 09:00:00 4.3 10 Noroeste 31 Oeste 0 -- -- 80
2020-01-19 08:00:00 4.4 15 Oeste 46 Noroeste 0.2 -- -- 77
2020-01-19 07:00:00 5 14 Noroeste 52 Sudoeste 0.6 -- -- 82
2020-01-19 06:00:00 5.3 10 Noroeste 28 Noroeste 0.8 -- -- 89
2020-01-19 05:00:00 4.9 9 Noroeste 24 Noroeste 0.2 -- -- 92
2020-01-19 04:00:00 4.2 4 Noroeste 13 Oeste 0.8 -- -- 94
2020-01-19 03:00:00 3.7 2 Oeste 6 Sudoeste 0.6 -- -- 94
2020-01-19 02:00:00 3.8 0 Calma 5 Noroeste 0.6 -- -- 94
2020-01-19 01:00:00 3.8 3 Norte 8 Norte 0 -- -- 91
2020-01-19 00:00:00 3.6 5 Nordeste 9 Norte 0 -- -- 92
2020-01-18 23:00:00 3.3 3 Norte 9 Norte 0 -- -- 94
2020-01-18 22:00:00 3.5 0 Calma 31 Norte 0.2 -- -- 92
2020-01-18 21:00:00 4.3 19 Nordeste 43 Norte 10.2 -- -- 85
2020-01-18 20:00:00 4.8 17 Norte 43 Norte 9.6 -- -- 89
2020-01-18 19:00:00 6.4 9 Norte 26 Sur 2 -- -- 90
2020-01-18 18:00:00 6.1 8 Noroeste 19 Oeste 2.6 -- -- 93
2020-01-18 17:00:00 6.7 6 Oeste 22 Oeste 0 -- -- 84
2020-01-18 16:00:00 8.2 6 Sur 12 Sur 0 -- -- 74
2020-01-18 15:00:00 7.1 8 Sur 14 Sur 0 -- -- 76
2020-01-18 14:00:00 6.7 9 Sudeste 22 Sudeste 0 -- -- 76
2020-01-18 13:00:00 6.7 10 Sur 16 Sur 0 -- -- 75
2020-01-18 12:00:00 6.3 9 Sur 16 Sur 0 -- -- 78
2020-01-18 11:00:00 5.2 3 Sudoeste 7 Sur 0 -- -- 82
2020-01-18 10:00:00 2.8 0 Calma 5 Sur 0 -- -- 89
2020-01-18 09:00:00 2.4 0 Calma 8 Este 0 -- -- 89
2020-01-18 08:00:00 1.9 2 Sur 7 Sudeste 0 -- -- 93
2020-01-18 07:00:00 1.5 3 Sudeste 5 Sudeste 0 -- -- 91
2020-01-18 06:00:00 1.9 3 Este 10 Oeste 0 -- -- 91
2020-01-18 05:00:00 2.5 4 Noroeste 12 Noroeste 0 -- -- 89
2020-01-18 04:00:00 2.4 3 Nordeste 5 Nordeste 0 -- -- 89
2020-01-18 03:00:00 2.5 3 Nordeste 8 Este 0 -- -- 88
2020-01-18 02:00:00 3 4 Nordeste 8 Nordeste 0 -- -- 90
2020-01-18 01:00:00 3 4 Nordeste 11 Este 0 -- -- 87
2020-01-18 00:00:00 3.6 5 Nordeste 10 Nordeste 0 -- -- 85
2020-01-17 23:00:00 3.5 5 Nordeste 10 Nordeste 0 -- -- 85
2020-01-17 22:00:00 3.8 3 Nordeste 9 Noroeste 0 -- -- 81
2020-01-17 21:00:00 4.2 3 Nordeste 7 Nordeste 0 -- -- 80
2020-01-17 20:00:00 6.7 4 Noroeste 12 Nordeste 0 -- -- 67
2020-01-17 19:00:00 7.1 9 Nordeste 24 Norte 0 -- -- 69
2020-01-17 18:00:00 7.8 4 Este 13 Noroeste 0 -- -- 69
2020-01-17 17:00:00 8.9 2 Noroeste 18 Norte 0 -- -- 66
2020-01-17 16:00:00 9.4 8 Norte 21 Norte 0 -- -- 60
2020-01-17 15:00:00 9.8 8 Norte 23 Norte 0 -- -- 63
2020-01-17 14:00:00 10 6 Noroeste 24 Noroeste 0 -- -- 60
2020-01-17 13:00:00 11 8 Sur 25 Oeste 0 -- -- 58
2020-01-17 12:00:00 10.7 7 Norte 28 Noroeste 0 -- -- 62
2020-01-17 11:00:00 9.8 8 Noroeste 21 Sudoeste 0.2 -- -- 66
2020-01-17 10:00:00 7.9 5 Noroeste 17 Norte 0 -- -- 80
2020-01-17 09:00:00 8.3 8 Norte 17 Noroeste 0 -- -- 80
2020-01-17 08:00:00 7.9 5 Norte 18 Norte 0 -- -- 85
2020-01-17 07:00:00 8 6 Norte 19 Norte 0 -- -- 83
2020-01-17 06:00:00 8.9 6 Norte 14 Norte 0 -- -- 69
2020-01-17 05:00:00 8.7 6 Norte 20 Norte 0 -- -- 70
2020-01-17 04:00:00 8.2 6 Norte 15 Norte 0 -- -- 73
2020-01-17 03:00:00 8.4 8 Norte 20 Nordeste 0 -- -- 73
2020-01-17 02:00:00 8.7 3 Norte 13 Oeste 0 -- -- 71
2020-01-17 01:00:00 8.1 3 Nordeste 12 Sudoeste 0 -- -- 75
2020-01-17 00:00:00 10 6 Oeste 14 Oeste 0 -- -- 65
2020-01-16 23:00:00 8.3 5 Noroeste 19 Oeste 0 -- -- 78
2020-01-16 22:00:00 7 3 Nordeste 15 Noroeste 0 -- -- 85
2020-01-16 21:00:00 6 2 Este 6 Sur 0 -- -- 91
2020-01-16 20:00:00 6 2 Norte 8 Nordeste 0 -- -- 93
2020-01-16 19:00:00 6.1 0 Calma 6 Nordeste 0 -- -- 92
2020-01-16 18:00:00 7.4 3 Norte 6 Norte 0 -- -- 87
2020-01-16 17:00:00 9.8 5 Sur 10 Sudoeste 0 -- -- 80
2020-01-16 16:00:00 11.5 6 Sur 18 Sur 0 -- -- 73
2020-01-16 15:00:00 9.9 10 Sudoeste 17 Sudoeste 0 -- -- 81
2020-01-16 14:00:00 6.4 5 Sudoeste 13 Sudoeste 0 -- -- 97
2020-01-16 13:00:00 4 2 Noroeste 12 Sur 0 -- -- 97
2020-01-16 12:00:00 3.5 6 Sur 10 Sudoeste 0 -- -- 97
2020-01-16 11:00:00 2.3 4 Sudoeste 9 Oeste 0 -- -- 97
2020-01-16 10:00:00 2.1 5 Noroeste 12 Oeste 0 -- -- 98
2020-01-16 09:00:00 1.5 3 Norte 11 Oeste 0 -- -- 98
2020-01-16 08:00:00 1.3 2 Norte 8 Sudoeste 0 -- -- 97
2020-01-16 07:00:00 1.4 4 Norte 9 Nordeste 0 -- -- 97
2020-01-16 06:00:00 1.2 4 Noroeste 10 Oeste 0 -- -- 97
2020-01-16 05:00:00 1.5 2 Nordeste 18 Nordeste 0 -- -- 94
2020-01-16 04:00:00 1.9 8 Norte 17 Sudoeste 0 -- -- 95
2020-01-16 03:00:00 2 6 Sudeste 13 Sudoeste 0 -- -- 95
2020-01-16 02:00:00 2 2 Nordeste 8 Sudoeste 0 -- -- 95
2020-01-16 01:00:00 3.1 4 Norte 25 Oeste 0 -- -- 92
2020-01-16 00:00:00 3.3 3 Nordeste 15 Oeste 0 -- -- 91
2020-01-15 23:00:00 3.6 3 Nordeste 16 Noroeste 0 -- -- 89
2020-01-15 22:00:00 4 3 Noroeste 18 Oeste 0 -- -- 92
2020-01-15 21:00:00 5.1 4 Sudeste 18 Oeste 0 -- -- 86
2020-01-15 20:00:00 5.6 3 Noroeste 10 Sudoeste 0 -- -- 88
2020-01-15 19:00:00 5.3 0 Calma 12 Sur 0 -- -- 90
2020-01-15 18:00:00 5.6 3 Nordeste 27 Oeste 0 -- -- 89
2020-01-15 17:00:00 6.1 3 Sur 10 Sur 0 -- -- 87
2020-01-15 16:00:00 7.3 4 Sur 19 Sudoeste 0 -- -- 84
2020-01-15 15:00:00 6.7 6 Norte 18 Sudoeste 0 -- -- 86
2020-01-15 14:00:00 6.7 4 Sur 14 Sudoeste 0 -- -- 82
2020-01-15 13:00:00 4.4 5 Sudoeste 25 Oeste 0 -- -- 87
2020-01-15 12:00:00 3.2 5 Sur 23 Oeste 0 -- -- 90
2020-01-15 11:00:00 2.4 6 Oeste 15 Oeste 0 -- -- 91
2020-01-15 10:00:00 2.3 5 Sur 15 Sur 0 -- -- 93
2020-01-15 09:00:00 1.1 5 Noroeste 13 Oeste 0 -- -- 96
2020-01-15 08:00:00 0.8 2 Norte 12 Sudoeste 0 -- -- 97
2020-01-15 07:00:00 0.4 3 Nordeste 9 Sudoeste 0 -- -- 97
2020-01-15 06:00:00 1.1 3 Sudeste 8 Sudoeste 0 -- -- 96
2020-01-15 05:00:00 0.1 2 Sur 9 Sur 0 -- -- 98
2020-01-15 04:00:00 -0.2 3 Sudeste 18 Sudoeste 0 -- -- 98
2020-01-15 03:00:00 -0.1 4 Sudeste 14 Nordeste 0 -- -- 97
2020-01-15 02:00:00 -0.6 5 Sudoeste 14 Sudoeste 0 -- -- 98
2020-01-15 01:00:00 -0.9 3 Sudeste 7 Sur 0 -- -- 97
2020-01-15 00:00:00 -1.4 2 Sur 12 Oeste 0 -- -- 97
2020-01-14 23:00:00 -1.3 4 Sur 14 Norte 0 -- -- 97
2020-01-14 22:00:00 -1.2 5 Noroeste 9 Norte 0 -- -- 96
2020-01-14 21:00:00 -1.1 2 Norte 19 Norte 0 -- -- 95
2020-01-14 20:00:00 1.1 6 Norte 17 Sudoeste 0 -- -- 95
2020-01-14 19:00:00 1.9 4 Sudeste 14 Sudoeste 0 -- -- 89
2020-01-14 18:00:00 3.7 0 Calma 8 Sur 0 -- -- 84
2020-01-14 17:00:00 6.6 3 Sudoeste 11 Sudoeste 0 -- -- 75
2020-01-14 16:00:00 8 6 Sudoeste 13 Sur 0 -- -- 70
2020-01-14 15:00:00 9.5 3 Este 12 Oeste 0 -- -- 59
2020-01-14 14:00:00 7.1 7 Sur 14 Sur 0 -- -- 74
2020-01-14 13:00:00 5.6 5 Sur 10 Sur 0 -- -- 81
2020-01-14 12:00:00 5 5 Sur 9 Sur 0 -- -- 82
2020-01-14 11:00:00 4.5 4 Sur 7 Sur 0 -- -- 82
2020-01-14 10:00:00 0 3 Sudoeste 9 Sudoeste 0 -- -- 96
2020-01-14 09:00:00 2.4 5 Oeste 36 Norte 0 -- -- 94
2020-01-14 08:00:00 5.8 13 Norte 29 Noroeste 0 -- -- 78
2020-01-14 07:00:00 4.7 11 Noroeste 26 Norte 0 -- -- 83
2020-01-14 06:00:00 3.8 5 Oeste 28 Norte 0 -- -- 80
2020-01-14 05:00:00 4.9 13 Norte 28 Norte 0 -- -- 76
2020-01-14 04:00:00 4.7 13 Norte 30 Norte 0 -- -- 77
2020-01-14 03:00:00 3.9 6 Noroeste 18 Noroeste 0 -- -- 78
2020-01-14 02:00:00 0.8 5 Noroeste 12 Sur 0 -- -- 88
2020-01-14 01:00:00 -0.2 3 Nordeste 9 Este 0 -- -- 93
2020-01-14 00:00:00 0.1 0 Calma 11 Noroeste 0 -- -- 88
2020-01-13 23:00:00 2.6 5 Noroeste 15 Noroeste 0 -- -- 83
2020-01-13 22:00:00 3.1 6 Noroeste 15 Norte 0 -- -- 79
2020-01-13 21:00:00 1.5 7 Norte 10 Noroeste 0 -- -- 92
2020-01-13 20:00:00 2 5 Noroeste 13 Noroeste 0 -- -- 92
2020-01-13 19:00:00 2.9 4 Oeste 9 Noroeste 0 -- -- 86
2020-01-13 18:00:00 4.1 3 Este 11 Sur 0 -- -- 88
2020-01-13 17:00:00 7 5 Sudeste 12 Sur 0 -- -- 77
2020-01-13 16:00:00 8 4 Sur 10 Sudeste 0 -- -- 67
2020-01-13 15:00:00 5.2 7 Sur 10 Sudoeste 0 -- -- 78
2020-01-13 14:00:00 5.6 5 Sur 14 Oeste 0 -- -- 75
2020-01-13 13:00:00 5.6 4 Oeste 12 Oeste 0 -- -- 74
2020-01-13 12:00:00 4.1 4 Sudoeste 9 Noroeste 0 -- -- 78
2020-01-13 11:00:00 2.4 4 Oeste 10 Oeste 0 -- -- 82
2020-01-13 10:00:00 1.2 2 Noroeste 9 Noroeste 0 -- -- 86
2020-01-13 09:00:00 0.9 5 Noroeste 9 Norte 0 -- -- 90
2020-01-13 08:00:00 -0.7 4 Noroeste 7 Norte 0 -- -- 95
2020-01-13 07:00:00 -0.4 4 Nordeste 6 Nordeste 0 -- -- 96
2020-01-13 06:00:00 -0.5 3 Nordeste 6 Nordeste 0 -- -- 96
2020-01-13 05:00:00 -0.5 2 Norte 5 Oeste 0 -- -- 96
2020-01-13 04:00:00 -0.6 3 Este 5 Este 0 -- -- 97
2020-01-13 03:00:00 -0.7 0 Calma 3 Nordeste 0 -- -- 95
2020-01-13 02:00:00 0.2 2 Nordeste 8 Norte 0 -- -- 94
2020-01-13 01:00:00 1.2 6 Norte 7 Norte 0 -- -- 95
2020-01-13 00:00:00 2.3 3 Este 6 Nordeste 0 -- -- 91
2020-01-12 23:00:00 4 4 Norte 9 Nordeste 0 -- -- 89
2020-01-12 22:00:00 3.7 4 Nordeste 7 Nordeste 0 -- -- 91
2020-01-12 21:00:00 3.7 3 Nordeste 11 Nordeste 0 -- -- 89
2020-01-12 20:00:00 4.7 6 Nordeste 10 Nordeste 0 -- -- 86
2020-01-12 19:00:00 5.8 5 Nordeste 7 Norte 0 -- -- 81
2020-01-12 18:00:00 7.9 0 Calma 31 Norte 0 -- -- 72
2020-01-12 17:00:00 11.5 12 Nordeste 34 Este 0 -- -- 63
2020-01-12 16:00:00 12.2 6 Oeste 23 Oeste 0 -- -- 54
2020-01-12 15:00:00 12 7 Noroeste 18 Oeste 0 -- -- 39
2020-01-12 14:00:00 8.7 5 Sudoeste 10 Oeste 0 -- -- 61
2020-01-12 13:00:00 7.5 4 Sur 7 Sur 0 -- -- 72
2020-01-12 12:00:00 4.4 4 Sur 6 Sudeste 0 -- -- 81
2020-01-12 11:00:00 1.1 3 Sudoeste 8 Oeste 0 -- -- 89
2020-01-12 10:00:00 -0.6 2 Sudoeste 4 Sudoeste 0 -- -- 94
2020-01-12 09:00:00 -2.4 0 Calma 5 Nordeste 0 -- -- 97
2020-01-12 08:00:00 -2.6 2 Nordeste 4 Nordeste 0 -- -- 96
2020-01-12 07:00:00 -2.5 0 Calma 4 Nordeste 0 -- -- 95
2020-01-12 06:00:00 -0.7 3 Noroeste 8 Oeste 0 -- -- 94
2020-01-12 05:00:00 -1.1 2 Nordeste 5 Nordeste 0 -- -- 95
2020-01-12 04:00:00 -0.3 5 Noroeste 10 Oeste 0 -- -- 94
2020-01-12 03:00:00 2.8 5 Norte 13 Noroeste 0 -- -- 84
2020-01-12 02:00:00 2 4 Norte 10 Noroeste 0 -- -- 86
2020-01-12 01:00:00 0.4 3 Norte 8 Oeste 0 -- -- 93
2020-01-12 00:00:00 0.6 3 Nordeste 6 Nordeste 0 -- -- 92
2020-01-11 23:00:00 1.3 3 Norte 10 Norte 0 -- -- 89
2020-01-11 22:00:00 2.9 6 Norte 12 Norte 0 -- -- 85
2020-01-11 21:00:00 3 4 Norte 11 Norte 0 -- -- 85
2020-01-11 20:00:00 4.5 5 Norte 12 Oeste 0 -- -- 81
2020-01-11 19:00:00 7.5 4 Norte 16 Norte 0 -- -- 65
2020-01-11 18:00:00 7.5 4 Noroeste 16 Norte 0 -- -- 64
2020-01-11 17:00:00 9.9 6 Noroeste 14 Noroeste 0 -- -- 59
2020-01-11 16:00:00 9.8 6 Oeste 18 Sudoeste 0 -- -- 63
2020-01-11 15:00:00 8.7 10 Sudoeste 19 Oeste 0 -- -- 68
2020-01-11 14:00:00 8.4 6 Oeste 17 Oeste 0 -- -- 67
2020-01-11 13:00:00 8.1 4 Sudoeste 16 Sudoeste 0 -- -- 71
2020-01-11 12:00:00 5.9 7 Oeste 13 Oeste 0 -- -- 85
2020-01-11 11:00:00 5.3 4 Sur 9 Sur 0 -- -- 87
2020-01-11 10:00:00 3 2 Nordeste 6 Nordeste 0 -- -- 91
2020-01-11 09:00:00 0.3 3 Norte 6 Norte 0 -- -- 96
2020-01-11 08:00:00 0.5 2 Norte 10 Norte 0 -- -- 93
2020-01-11 07:00:00 2.3 5 Nordeste 10 Norte 0 -- -- 91
2020-01-11 06:00:00 1.4 5 Norte 13 Norte 0 -- -- 92
2020-01-11 05:00:00 1.3 6 Noroeste 11 Noroeste 0 -- -- 95
2020-01-11 04:00:00 0.9 3 Norte 12 Noroeste 0 -- -- 95
2020-01-11 03:00:00 2.8 6 Oeste 18 Oeste 0 -- -- 94
2020-01-11 02:00:00 2.4 4 Oeste 12 Noroeste 0 -- -- 93
2020-01-11 01:00:00 2.8 5 Noroeste 11 Oeste 0 -- -- 92
2020-01-11 00:00:00 3.9 3 Oeste 12 Sudoeste 0 -- -- 88
2020-01-10 23:00:00 5.5 5 Sudoeste 17 Sur 0 -- -- 84
2020-01-10 22:00:00 5.6 7 Oeste 23 Nordeste 0 -- -- 81
2020-01-10 21:00:00 6.1 8 Oeste 39 Norte 0 -- -- 79
2020-01-10 20:00:00 6.6 15 Norte 39 Noroeste 0 -- -- 76
2020-01-10 19:00:00 6.1 9 Nordeste 37 Norte 0 -- -- 78
2020-01-10 18:00:00 6.5 19 Norte 46 Norte 0 -- -- 71
2020-01-10 17:00:00 6.9 22 Norte 50 Nordeste 0.4 -- -- 77
2020-01-10 16:00:00 6.6 8 Norte 26 Noroeste 0.6 -- -- 85
2020-01-10 15:00:00 6.3 5 Noroeste 21 Norte 0.6 -- -- 89
2020-01-10 14:00:00 8 8 Noroeste 23 Norte 0.6 -- -- 81
2020-01-10 13:00:00 5.8 5 Norte 15 Sudoeste 0 -- -- 86
2020-01-10 12:00:00 6.4 6 Sudoeste 13 Sudoeste 0 -- -- 84
2020-01-10 11:00:00 5.2 3 Nordeste 9 Norte 0 -- -- 83
2020-01-10 10:00:00 4.8 3 Norte 10 Nordeste 0 -- -- 85
2020-01-10 09:00:00 2.8 3 Norte 8 Norte 0 -- -- 91
2020-01-10 08:00:00 2.8 4 Norte 10 Norte 0 -- -- 94
2020-01-10 07:00:00 4.1 5 Norte 15 Noroeste 0 -- -- 91
2020-01-10 06:00:00 5.1 5 Noroeste 12 Norte 0 -- -- 91
2020-01-10 05:00:00 4.6 3 Norte 9 Norte 0 -- -- 99
2020-01-10 04:00:00 3.4 2 Sudeste 10 Norte 0 -- -- 99
2020-01-10 03:00:00 4.4 5 Norte 23 Este 0 -- -- 100
2020-01-10 02:00:00 3.5 3 Oeste 9 Sudoeste 0 -- -- 99
2020-01-10 01:00:00 3.4 5 Nordeste 10 Oeste 0.8 -- -- 99
2020-01-10 00:00:00 3.5 3 Noroeste 13 Oeste 0.2 -- -- 99
2020-01-09 23:00:00 3.4 3 Norte 11 Oeste 0 -- -- 99
2020-01-09 22:00:00 3.4 3 Nordeste 14 Sudoeste 0 -- -- 99
2020-01-09 21:00:00 3.3 5 Oeste 13 Sudoeste 0.2 -- -- 99
2020-01-09 20:00:00 3.1 3 Norte 7 Sur 0.6 -- -- 99
2020-01-09 19:00:00 2.9 5 Sur 9 Sur 0 -- -- 99
2020-01-09 18:00:00 3.1 6 Sur 9 Sur 0 -- -- 99
2020-01-09 17:00:00 3.2 3 Sur 12 Sudeste 0 -- -- 99
2020-01-09 16:00:00 3.6 7 Sur 16 Sudeste 0 -- -- 99
2020-01-09 15:00:00 3.5 8 Sudeste 16 Sudeste 0 -- -- 99
2020-01-09 14:00:00 3.5 8 Sudeste 13 Sudeste 0 -- -- 99
2020-01-09 13:00:00 2.9 7 Sudeste 15 Sur 0 -- -- 99
2020-01-09 12:00:00 2.6 6 Sur 10 Sur 0 -- -- 99
2020-01-09 11:00:00 2.2 6 Sur 12 Sur 0 -- -- 99
2020-01-09 10:00:00 2 4 Sudeste 8 Sudeste 0 -- -- 99
2020-01-09 09:00:00 1.8 3 Este 11 Este 0 -- -- 99
2020-01-09 08:00:00 1.6 4 Sudeste 12 Sudeste 0 -- -- 99
2020-01-09 07:00:00 1.6 5 Sudeste 10 Sudoeste 0 -- -- 98
2020-01-09 06:00:00 1.6 4 Sudeste 9 Sudeste 0 -- -- 98
2020-01-09 05:00:00 1.6 5 Sudeste 11 Sur 0 -- -- 98
2020-01-09 04:00:00 1.5 7 Sur 13 Sur 0 -- -- 98
2020-01-09 03:00:00 1.8 6 Sur 10 Sur 0 -- -- 98
2020-01-09 02:00:00 1.9 6 Sur 10 Sur 0 -- -- 98
2020-01-09 01:00:00 2.2 0 Calma 8 Sudoeste 0 -- -- 98
2020-01-09 00:00:00 2.1 4 Sudoeste 7 Sur 0 -- -- 98
2020-01-08 23:00:00 2.5 5 Sur 7 Sudeste 0 -- -- 97
2020-01-08 22:00:00 2.6 4 Sudoeste 9 Sudoeste 0 -- -- 97
2020-01-08 21:00:00 3.4 2 Sudoeste 9 Oeste 0 -- -- 96
2020-01-08 20:00:00 4.2 3 Sudoeste 6 Sudoeste 0 -- -- 92
2020-01-08 19:00:00 6.2 3 Noroeste 8 Noroeste 0 -- -- 89
2020-01-08 18:00:00 7.2 0 Calma 10 Sur 0 -- -- 86
2020-01-08 17:00:00 9.6 7 Sudoeste 18 Sur 0 -- -- 80
2020-01-08 16:00:00 14.5 12 Sur 19 Sur 0 -- -- 69
2020-01-08 15:00:00 14.9 4 Sudoeste 11 Sur 0 -- -- 64
2020-01-08 14:00:00 15.1 3 Sur 8 Sur 0 -- -- 66
2020-01-08 13:00:00 12.2 3 Sur 10 Sudeste 0 -- -- 72
2020-01-08 12:00:00 11.7 4 Sudoeste 10 Oeste 0 -- -- 76
2020-01-08 11:00:00 8.5 4 Sur 9 Oeste 0 -- -- 84
2020-01-08 10:00:00 6.1 4 Nordeste 15 Noroeste 0 -- -- 94
2020-01-08 09:00:00 3.2 2 Oeste 17 Noroeste 0 -- -- 92
2020-01-08 08:00:00 6.4 2 Noroeste 18 Noroeste 0 -- -- 91
2020-01-08 07:00:00 3.7 2 Norte 8 Noroeste 0 -- -- 96
2020-01-08 06:00:00 6.1 4 Noroeste 10 Oeste 0 -- -- 91
2020-01-08 05:00:00 6.5 6 Oeste 12 Noroeste 0 -- -- 93
2020-01-08 04:00:00 5.4 5 Noroeste 9 Noroeste 0 -- -- 98
2020-01-08 03:00:00 3.8 0 Calma 7 Noroeste 0 -- -- 96
2020-01-08 02:00:00 3.7 0 Calma 3 Nordeste 0 -- -- 96
2020-01-08 01:00:00 3.8 0 Calma 3 Norte 0 -- -- 97
2020-01-08 00:00:00 3.7 0 Calma 4 Nordeste 0 -- -- 96
2020-01-07 23:00:00 4 0 Calma 4 Norte 0 -- -- 95
2020-01-07 22:00:00 4.7 0 Calma 5 Norte 0 -- -- 93
2020-01-07 21:00:00 6.1 2 Nordeste 6 Nordeste 0 -- -- 91
2020-01-07 20:00:00 7.1 3 Nordeste 8 Nordeste 0 -- -- 88
2020-01-07 19:00:00 8.1 3 Nordeste 9 Nordeste 0 -- -- 85
2020-01-07 18:00:00 9.7 5 Nordeste 7 Nordeste 0 -- -- 80
2020-01-07 17:00:00 13.5 2 Sur 5 Sudoeste 0 -- -- 65
2020-01-07 16:00:00 13.2 4 Oeste 10 Oeste 0 -- -- 65
2020-01-07 15:00:00 14.7 4 Oeste 9 Oeste 0 -- -- 58
2020-01-07 14:00:00 12.3 3 Sur 8 Sur 0 -- -- 65
2020-01-07 13:00:00 9.4 4 Sur 8 Sur 0 -- -- 74
2020-01-07 12:00:00 6.2 2 Sur 6 Sur 0 -- -- 82
2020-01-07 11:00:00 3.8 3 Sudeste 9 Sur 0 -- -- 85
2020-01-07 10:00:00 1.6 0 Calma 3 Este 0 -- -- 93
2020-01-07 09:00:00 -0.3 0 Calma 5 Este 0 -- -- 94
2020-01-07 08:00:00 1.3 2 Nordeste 7 Nordeste 0 -- -- 92
2020-01-07 07:00:00 0.7 5 Norte 8 Norte 0 -- -- 97
2020-01-07 06:00:00 -0.6 0 Calma 13 Norte 0 -- -- 94
2020-01-07 05:00:00 -0.6 2 Norte 4 Nordeste 0 -- -- 93
2020-01-07 04:00:00 0.7 3 Noroeste 8 Oeste 0 -- -- 91
2020-01-07 03:00:00 2.1 6 Nordeste 10 Nordeste 0 -- -- 85
2020-01-07 02:00:00 1.1 4 Nordeste 6 Nordeste 0 -- -- 92
2020-01-07 01:00:00 1.4 2 Norte 12 Oeste 0 -- -- 86
2020-01-07 00:00:00 0.2 2 Norte 6 Norte 0 -- -- 92
2020-01-06 23:00:00 1.9 4 Nordeste 9 Nordeste 0 -- -- 88
2020-01-06 22:00:00 1.7 3 Nordeste 8 Nordeste 0 -- -- 89
2020-01-06 21:00:00 2.2 4 Nordeste 6 Nordeste 0 -- -- 86
2020-01-06 20:00:00 3.6 5 Norte 8 Norte 0 -- -- 82
2020-01-06 19:00:00 3.3 3 Nordeste 7 Nordeste 0 -- -- 84
2020-01-06 18:00:00 4.3 2 Norte 5 Noroeste 0 -- -- 82
2020-01-06 17:00:00 7.7 2 Sudoeste 6 Sudoeste 0 -- -- 67
2020-01-06 16:00:00 9.2 3 Sudoeste 11 Sur 0 -- -- 61
2020-01-06 15:00:00 8.5 5 Oeste 11 Sudoeste 0 -- -- 63
2020-01-06 14:00:00 8.1 7 Sudoeste 14 Sudoeste 0 -- -- 64
2020-01-06 13:00:00 5.9 4 Sur 9 Sur 0 -- -- 75
2020-01-06 12:00:00 3.5 4 Sur 8 Sur 0 -- -- 79
2020-01-06 11:00:00 2.8 3 Sur 9 Sudoeste 0 -- -- 82
2020-01-06 10:00:00 0.2 0 Calma 6 Nordeste 0 -- -- 88